sensor_id;sensor_type;location;lat;lon;timestamp;P1;durP1;ratioP1;P2;durP2;ratioP2
562;SDS011;266;49.514;8.294;2023-06-14T00:00:00;4.20;;;3.90;;
562;SDS011;266;49.514;8.294;2023-06-14T00:02:30;4.53;;;3.83;;
562;SDS011;266;49.514;8.294;2023-06-14T00:04:58;4.43;;;4.10;;
562;SDS011;266;49.514;8.294;2023-06-14T00:07:34;4.00;;;3.70;;
562;SDS011;266;49.514;8.294;2023-06-14T00:10:04;8.50;;;4.27;;
562;SDS011;266;49.514;8.294;2023-06-14T00:12:33;4.70;;;4.23;;
562;SDS011;266;49.514;8.294;2023-06-14T00:15:01;4.80;;;4.30;;
562;SDS011;266;49.514;8.294;2023-06-14T00:17:30;4.87;;;4.40;;
562;SDS011;266;49.514;8.294;2023-06-14T00:19:58;6.77;;;4.53;;
562;SDS011;266;49.514;8.294;2023-06-14T00:22:26;4.23;;;3.87;;
562;SDS011;266;49.514;8.294;2023-06-14T00:24:58;3.90;;;3.50;;
562;SDS011;266;49.514;8.294;2023-06-14T00:27:40;5.63;;;4.00;;
562;SDS011;266;49.514;8.294;2023-06-14T00:30:08;4.17;;;3.87;;
562;SDS011;266;49.514;8.294;2023-06-14T00:32:37;4.73;;;4.23;;
562;SDS011;266;49.514;8.294;2023-06-14T00:35:06;4.70;;;4.33;;
562;SDS011;266;49.514;8.294;2023-06-14T00:37:34;4.73;;;4.40;;
562;SDS011;266;49.514;8.294;2023-06-14T00:40:04;4.60;;;4.20;;
562;SDS011;266;49.514;8.294;2023-06-14T00:42:33;4.40;;;4.00;;
562;SDS011;266;49.514;8.294;2023-06-14T00:45:01;4.60;;;4.20;;
562;SDS011;266;49.514;8.294;2023-06-14T00:47:29;3.83;;;3.63;;
562;SDS011;266;49.514;8.294;2023-06-14T00:49:57;6.13;;;4.70;;
562;SDS011;266;49.514;8.294;2023-06-14T00:52:26;5.30;;;4.80;;
562;SDS011;266;49.514;8.294;2023-06-14T00:54:54;5.43;;;4.93;;
562;SDS011;266;49.514;8.294;2023-06-14T00:57:23;4.77;;;4.37;;
562;SDS011;266;49.514;8.294;2023-06-14T00:59:51;5.30;;;4.93;;
562;SDS011;266;49.514;8.294;2023-06-14T01:02:21;5.10;;;4.60;;
562;SDS011;266;49.514;8.294;2023-06-14T01:04:50;4.57;;;4.27;;
562;SDS011;266;49.514;8.294;2023-06-14T01:07:23;5.13;;;4.70;;
562;SDS011;266;49.514;8.294;2023-06-14T01:10:10;5.00;;;4.10;;
562;SDS011;266;49.514;8.294;2023-06-14T01:12:55;4.80;;;4.40;;
562;SDS011;266;49.514;8.294;2023-06-14T01:15:30;4.20;;;3.90;;
562;SDS011;266;49.514;8.294;2023-06-14T01:17:58;6.80;;;4.67;;
562;SDS011;266;49.514;8.294;2023-06-14T01:20:30;5.80;;;4.60;;
562;SDS011;266;49.514;8.294;2023-06-14T01:23:04;4.53;;;4.23;;
562;SDS011;266;49.514;8.294;2023-06-14T01:25:32;5.50;;;5.00;;
562;SDS011;266;49.514;8.294;2023-06-14T01:28:02;5.30;;;4.80;;
562;SDS011;266;49.514;8.294;2023-06-14T01:30:37;5.40;;;5.00;;
562;SDS011;266;49.514;8.294;2023-06-14T01:33:12;4.53;;;4.20;;
562;SDS011;266;49.514;8.294;2023-06-14T01:35:41;4.73;;;4.27;;
562;SDS011;266;49.514;8.294;2023-06-14T01:38:12;5.57;;;5.17;;
562;SDS011;266;49.514;8.294;2023-06-14T01:40:40;5.07;;;4.67;;
562;SDS011;266;49.514;8.294;2023-06-14T01:43:12;5.60;;;5.17;;
562;SDS011;266;49.514;8.294;2023-06-14T01:45:41;5.07;;;4.67;;
562;SDS011;266;49.514;8.294;2023-06-14T01:48:11;6.10;;;5.37;;
562;SDS011;266;49.514;8.294;2023-06-14T01:50:39;5.13;;;4.60;;
562;SDS011;266;49.514;8.294;2023-06-14T01:53:07;6.03;;;5.00;;
562;SDS011;266;49.514;8.294;2023-06-14T01:55:38;5.27;;;4.87;;
562;SDS011;266;49.514;8.294;2023-06-14T01:58:09;5.50;;;5.00;;
562;SDS011;266;49.514;8.294;2023-06-14T02:00:38;5.37;;;4.87;;
562;SDS011;266;49.514;8.294;2023-06-14T02:03:06;5.67;;;5.13;;
562;SDS011;266;49.514;8.294;2023-06-14T02:05:34;5.60;;;5.10;;
562;SDS011;266;49.514;8.294;2023-06-14T02:08:05;4.87;;;4.43;;
562;SDS011;266;49.514;8.294;2023-06-14T02:10:33;7.50;;;4.93;;
562;SDS011;266;49.514;8.294;2023-06-14T02:13:03;5.73;;;4.90;;
562;SDS011;266;49.514;8.294;2023-06-14T02:15:31;4.67;;;4.30;;
562;SDS011;266;49.514;8.294;2023-06-14T02:18:01;5.57;;;5.03;;
562;SDS011;266;49.514;8.294;2023-06-14T02:20:30;5.23;;;4.83;;
562;SDS011;266;49.514;8.294;2023-06-14T02:22:58;5.53;;;5.00;;
562;SDS011;266;49.514;8.294;2023-06-14T02:25:26;5.37;;;4.97;;
562;SDS011;266;49.514;8.294;2023-06-14T02:27:55;4.70;;;4.30;;
562;SDS011;266;49.514;8.294;2023-06-14T02:30:24;7.30;;;4.87;;
562;SDS011;266;49.514;8.294;2023-06-14T02:32:52;5.27;;;4.80;;
562;SDS011;266;49.514;8.294;2023-06-14T02:35:20;4.90;;;4.50;;
562;SDS011;266;49.514;8.294;2023-06-14T02:37:50;5.63;;;5.23;;
562;SDS011;266;49.514;8.294;2023-06-14T02:40:19;5.50;;;5.10;;
562;SDS011;266;49.514;8.294;2023-06-14T02:42:47;4.70;;;4.30;;
562;SDS011;266;49.514;8.294;2023-06-14T02:45:15;5.30;;;4.80;;
562;SDS011;266;49.514;8.294;2023-06-14T02:47:44;5.17;;;4.70;;
562;SDS011;266;49.514;8.294;2023-06-14T02:50:13;4.97;;;4.60;;
562;SDS011;266;49.514;8.294;2023-06-14T02:52:42;6.13;;;5.63;;
562;SDS011;266;49.514;8.294;2023-06-14T02:55:11;4.80;;;4.43;;
562;SDS011;266;49.514;8.294;2023-06-14T02:57:39;4.87;;;4.50;;
562;SDS011;266;49.514;8.294;2023-06-14T03:00:08;5.07;;;4.57;;
562;SDS011;266;49.514;8.294;2023-06-14T03:02:40;4.43;;;4.03;;
562;SDS011;266;49.514;8.294;2023-06-14T03:05:11;5.20;;;4.80;;
562;SDS011;266;49.514;8.294;2023-06-14T03:07:39;5.30;;;4.90;;
562;SDS011;266;49.514;8.294;2023-06-14T03:10:07;5.27;;;4.87;;
562;SDS011;266;49.514;8.294;2023-06-14T03:12:36;4.80;;;4.40;;
562;SDS011;266;49.514;8.294;2023-06-14T03:15:04;5.10;;;4.60;;
562;SDS011;266;49.514;8.294;2023-06-14T03:17:33;5.40;;;4.90;;
562;SDS011;266;49.514;8.294;2023-06-14T03:20:01;4.90;;;4.43;;
562;SDS011;266;49.514;8.294;2023-06-14T03:22:34;4.60;;;4.30;;
562;SDS011;266;49.514;8.294;2023-06-14T03:25:02;4.83;;;4.20;;
562;SDS011;266;49.514;8.294;2023-06-14T03:27:31;5.07;;;4.57;;
562;SDS011;266;49.514;8.294;2023-06-14T03:29:59;5.03;;;4.63;;
562;SDS011;266;49.514;8.294;2023-06-14T03:32:27;5.57;;;5.03;;
562;SDS011;266;49.514;8.294;2023-06-14T03:34:59;5.03;;;4.63;;
562;SDS011;266;49.514;8.294;2023-06-14T03:37:27;4.67;;;4.27;;
562;SDS011;266;49.514;8.294;2023-06-14T03:39:57;5.90;;;4.83;;
562;SDS011;266;49.514;8.294;2023-06-14T03:42:24;4.10;;;3.80;;
562;SDS011;266;49.514;8.294;2023-06-14T03:44:52;4.60;;;4.30;;
562;SDS011;266;49.514;8.294;2023-06-14T03:47:20;4.70;;;4.30;;
562;SDS011;266;49.514;8.294;2023-06-14T03:49:48;5.63;;;4.27;;
562;SDS011;266;49.514;8.294;2023-06-14T03:52:17;5.47;;;4.97;;
562;SDS011;266;49.514;8.294;2023-06-14T03:54:44;9.90;;;5.20;;
562;SDS011;266;49.514;8.294;2023-06-14T03:57:34;4.77;;;4.47;;
562;SDS011;266;49.514;8.294;2023-06-14T04:00:02;5.50;;;4.10;;
562;SDS011;266;49.514;8.294;2023-06-14T04:02:32;4.80;;;4.30;;
562;SDS011;266;49.514;8.294;2023-06-14T04:05:00;6.30;;;4.43;;
562;SDS011;266;49.514;8.294;2023-06-14T04:07:30;4.90;;;4.50;;
562;SDS011;266;49.514;8.294;2023-06-14T04:09:58;5.03;;;4.63;;
562;SDS011;266;49.514;8.294;2023-06-14T04:12:26;4.80;;;4.40;;
562;SDS011;266;49.514;8.294;2023-06-14T04:14:55;5.07;;;4.40;;
562;SDS011;266;49.514;8.294;2023-06-14T04:17:37;4.33;;;3.93;;
562;SDS011;266;49.514;8.294;2023-06-14T04:20:06;4.63;;;4.23;;
562;SDS011;266;49.514;8.294;2023-06-14T04:22:36;4.70;;;4.30;;
562;SDS011;266;49.514;8.294;2023-06-14T04:25:04;5.20;;;4.50;;
562;SDS011;266;49.514;8.294;2023-06-14T04:27:32;5.00;;;4.60;;
562;SDS011;266;49.514;8.294;2023-06-14T04:30:04;6.10;;;4.53;;
562;SDS011;266;49.514;8.294;2023-06-14T04:32:33;5.63;;;4.80;;
562;SDS011;266;49.514;8.294;2023-06-14T04:35:06;4.83;;;4.43;;
562;SDS011;266;49.514;8.294;2023-06-14T04:37:35;4.93;;;4.53;;
562;SDS011;266;49.514;8.294;2023-06-14T04:40:07;4.50;;;4.10;;
562;SDS011;266;49.514;8.294;2023-06-14T04:42:38;3.90;;;3.60;;
562;SDS011;266;49.514;8.294;2023-06-14T04:45:08;4.83;;;4.43;;
562;SDS011;266;49.514;8.294;2023-06-14T04:47:37;4.90;;;4.50;;
562;SDS011;266;49.514;8.294;2023-06-14T04:50:05;6.03;;;4.87;;
562;SDS011;266;49.514;8.294;2023-06-14T04:52:38;5.27;;;3.70;;
562;SDS011;266;49.514;8.294;2023-06-14T04:55:07;4.80;;;4.07;;
562;SDS011;266;49.514;8.294;2023-06-14T04:57:36;5.53;;;4.30;;
562;SDS011;266;49.514;8.294;2023-06-14T05:00:06;4.93;;;4.50;;
562;SDS011;266;49.514;8.294;2023-06-14T05:02:39;6.50;;;4.17;;
562;SDS011;266;49.514;8.294;2023-06-14T05:05:08;4.67;;;4.33;;
562;SDS011;266;49.514;8.294;2023-06-14T05:07:37;4.47;;;4.07;;
562;SDS011;266;49.514;8.294;2023-06-14T05:10:08;4.63;;;4.23;;
562;SDS011;266;49.514;8.294;2023-06-14T05:12:37;9.10;;;4.67;;
562;SDS011;266;49.514;8.294;2023-06-14T05:15:07;4.27;;;3.87;;
562;SDS011;266;49.514;8.294;2023-06-14T05:17:40;5.00;;;3.67;;
562;SDS011;266;49.514;8.294;2023-06-14T05:20:10;4.50;;;4.10;;
562;SDS011;266;49.514;8.294;2023-06-14T05:22:38;4.40;;;3.80;;
562;SDS011;266;49.514;8.294;2023-06-14T05:25:07;4.40;;;4.00;;
562;SDS011;266;49.514;8.294;2023-06-14T05:27:35;5.20;;;4.00;;
562;SDS011;266;49.514;8.294;2023-06-14T05:30:04;4.40;;;3.70;;
562;SDS011;266;49.514;8.294;2023-06-14T05:32:34;4.50;;;4.10;;
562;SDS011;266;49.514;8.294;2023-06-14T05:35:02;4.70;;;4.30;;
562;SDS011;266;49.514;8.294;2023-06-14T05:37:32;4.63;;;4.33;;
562;SDS011;266;49.514;8.294;2023-06-14T05:39:59;4.60;;;4.20;;
562;SDS011;266;49.514;8.294;2023-06-14T05:42:29;3.97;;;3.67;;
562;SDS011;266;49.514;8.294;2023-06-14T05:44:57;4.40;;;4.00;;
562;SDS011;266;49.514;8.294;2023-06-14T05:47:24;4.67;;;4.30;;
562;SDS011;266;49.514;8.294;2023-06-14T05:49:55;4.57;;;4.17;;
562;SDS011;266;49.514;8.294;2023-06-14T05:52:23;4.53;;;4.23;;
562;SDS011;266;49.514;8.294;2023-06-14T05:54:51;4.40;;;4.10;;
562;SDS011;266;49.514;8.294;2023-06-14T05:57:19;4.53;;;4.20;;
562;SDS011;266;49.514;8.294;2023-06-14T05:59:47;3.87;;;3.57;;
562;SDS011;266;49.514;8.294;2023-06-14T06:02:16;4.37;;;3.97;;
562;SDS011;266;49.514;8.294;2023-06-14T06:04:44;4.10;;;3.63;;
562;SDS011;266;49.514;8.294;2023-06-14T06:07:14;4.30;;;3.90;;
562;SDS011;266;49.514;8.294;2023-06-14T06:09:42;5.27;;;3.83;;
562;SDS011;266;49.514;8.294;2023-06-14T06:12:10;4.23;;;3.93;;
562;SDS011;266;49.514;8.294;2023-06-14T06:14:38;4.63;;;4.23;;
562;SDS011;266;49.514;8.294;2023-06-14T06:17:06;6.10;;;3.77;;
562;SDS011;266;49.514;8.294;2023-06-14T06:19:34;4.40;;;3.83;;
562;SDS011;266;49.514;8.294;2023-06-14T06:22:02;4.47;;;4.13;;
562;SDS011;266;49.514;8.294;2023-06-14T06:24:33;4.77;;;4.30;;
562;SDS011;266;49.514;8.294;2023-06-14T06:27:02;4.80;;;4.40;;
562;SDS011;266;49.514;8.294;2023-06-14T06:29:30;4.93;;;4.13;;
562;SDS011;266;49.514;8.294;2023-06-14T06:31:58;4.67;;;4.27;;
562;SDS011;266;49.514;8.294;2023-06-14T06:34:26;7.00;;;4.60;;
562;SDS011;266;49.514;8.294;2023-06-14T06:36:54;4.67;;;4.37;;
562;SDS011;266;49.514;8.294;2023-06-14T06:39:22;6.90;;;4.80;;
562;SDS011;266;49.514;8.294;2023-06-14T06:41:51;4.13;;;3.80;;
562;SDS011;266;49.514;8.294;2023-06-14T06:44:19;4.47;;;4.07;;
562;SDS011;266;49.514;8.294;2023-06-14T06:46:47;4.90;;;4.50;;
562;SDS011;266;49.514;8.294;2023-06-14T06:49:15;4.57;;;4.17;;
562;SDS011;266;49.514;8.294;2023-06-14T06:51:53;4.97;;;4.00;;
562;SDS011;266;49.514;8.294;2023-06-14T06:54:27;4.30;;;3.90;;
562;SDS011;266;49.514;8.294;2023-06-14T06:56:56;5.67;;;4.60;;
562;SDS011;266;49.514;8.294;2023-06-14T06:59:25;4.80;;;4.40;;
562;SDS011;266;49.514;8.294;2023-06-14T07:01:53;4.50;;;4.10;;
562;SDS011;266;49.514;8.294;2023-06-14T07:04:21;5.07;;;4.53;;
562;SDS011;266;49.514;8.294;2023-06-14T07:06:49;4.30;;;3.90;;
562;SDS011;266;49.514;8.294;2023-06-14T07:09:17;5.13;;;4.60;;
562;SDS011;266;49.514;8.294;2023-06-14T07:11:47;4.83;;;4.33;;
562;SDS011;266;49.514;8.294;2023-06-14T07:14:16;4.20;;;3.90;;
562;SDS011;266;49.514;8.294;2023-06-14T07:16:44;5.10;;;4.23;;
562;SDS011;266;49.514;8.294;2023-06-14T07:19:13;4.00;;;3.70;;
562;SDS011;266;49.514;8.294;2023-06-14T07:21:41;4.33;;;3.90;;
562;SDS011;266;49.514;8.294;2023-06-14T07:24:09;4.23;;;3.93;;
562;SDS011;266;49.514;8.294;2023-06-14T07:26:37;3.87;;;3.53;;
562;SDS011;266;49.514;8.294;2023-06-14T07:29:05;4.87;;;3.80;;
562;SDS011;266;49.514;8.294;2023-06-14T07:31:34;4.17;;;3.77;;
562;SDS011;266;49.514;8.294;2023-06-14T07:34:02;4.30;;;4.00;;
562;SDS011;266;49.514;8.294;2023-06-14T07:36:31;7.53;;;4.10;;
562;SDS011;266;49.514;8.294;2023-06-14T07:38:58;4.80;;;4.40;;
562;SDS011;266;49.514;8.294;2023-06-14T07:41:29;4.70;;;4.30;;
562;SDS011;266;49.514;8.294;2023-06-14T07:43:57;3.97;;;3.77;;
562;SDS011;266;49.514;8.294;2023-06-14T07:46:25;4.27;;;3.40;;
562;SDS011;266;49.514;8.294;2023-06-14T07:48:54;3.53;;;3.20;;
562;SDS011;266;49.514;8.294;2023-06-14T07:51:22;4.53;;;4.23;;
562;SDS011;266;49.514;8.294;2023-06-14T07:53:50;5.17;;;4.20;;
562;SDS011;266;49.514;8.294;2023-06-14T07:56:18;4.23;;;3.83;;
562;SDS011;266;49.514;8.294;2023-06-14T07:58:47;4.50;;;3.83;;
562;SDS011;266;49.514;8.294;2023-06-14T08:01:15;5.40;;;4.40;;
562;SDS011;266;49.514;8.294;2023-06-14T08:03:43;4.10;;;3.80;;
562;SDS011;266;49.514;8.294;2023-06-14T08:06:12;6.20;;;4.07;;
562;SDS011;266;49.514;8.294;2023-06-14T08:08:40;4.83;;;4.43;;
562;SDS011;266;49.514;8.294;2023-06-14T08:11:08;3.57;;;3.30;;
562;SDS011;266;49.514;8.294;2023-06-14T08:13:36;4.63;;;4.23;;
562;SDS011;266;49.514;8.294;2023-06-14T08:16:04;3.40;;;3.10;;
562;SDS011;266;49.514;8.294;2023-06-14T08:18:32;3.53;;;3.33;;
562;SDS011;266;49.514;8.294;2023-06-14T08:21:00;3.40;;;3.20;;
562;SDS011;266;49.514;8.294;2023-06-14T08:23:30;4.30;;;4.00;;
562;SDS011;266;49.514;8.294;2023-06-14T08:25:58;6.90;;;3.97;;
562;SDS011;266;49.514;8.294;2023-06-14T08:28:27;4.40;;;4.00;;
562;SDS011;266;49.514;8.294;2023-06-14T08:30:56;3.80;;;3.50;;
562;SDS011;266;49.514;8.294;2023-06-14T08:33:24;4.10;;;3.80;;
562;SDS011;266;49.514;8.294;2023-06-14T08:35:52;3.90;;;3.60;;
562;SDS011;266;49.514;8.294;2023-06-14T08:38:20;4.40;;;4.00;;
562;SDS011;266;49.514;8.294;2023-06-14T08:40:50;4.53;;;4.23;;
562;SDS011;266;49.514;8.294;2023-06-14T08:43:20;5.40;;;4.90;;
562;SDS011;266;49.514;8.294;2023-06-14T08:45:47;4.10;;;3.80;;
562;SDS011;266;49.514;8.294;2023-06-14T08:48:20;3.67;;;3.47;;
562;SDS011;266;49.514;8.294;2023-06-14T08:50:51;3.73;;;3.30;;
562;SDS011;266;49.514;8.294;2023-06-14T08:53:28;3.83;;;3.53;;
562;SDS011;266;49.514;8.294;2023-06-14T08:56:04;4.43;;;4.03;;
562;SDS011;266;49.514;8.294;2023-06-14T08:58:34;4.10;;;3.80;;
562;SDS011;266;49.514;8.294;2023-06-14T09:01:02;3.53;;;3.23;;
562;SDS011;266;49.514;8.294;2023-06-14T09:03:34;3.57;;;3.27;;
562;SDS011;266;49.514;8.294;2023-06-14T09:06:07;3.07;;;2.87;;
562;SDS011;266;49.514;8.294;2023-06-14T09:08:40;4.50;;;3.80;;
562;SDS011;266;49.514;8.294;2023-06-14T09:11:12;4.07;;;3.77;;
562;SDS011;266;49.514;8.294;2023-06-14T09:13:41;2.93;;;2.73;;
562;SDS011;266;49.514;8.294;2023-06-14T09:16:09;2.80;;;2.60;;
562;SDS011;266;49.514;8.294;2023-06-14T09:18:38;2.87;;;2.67;;
562;SDS011;266;49.514;8.294;2023-06-14T09:21:10;3.80;;;2.87;;
562;SDS011;266;49.514;8.294;2023-06-14T09:23:39;3.43;;;3.13;;
562;SDS011;266;49.514;8.294;2023-06-14T09:26:09;6.50;;;3.70;;
562;SDS011;266;49.514;8.294;2023-06-14T09:28:43;3.07;;;2.73;;
562;SDS011;266;49.514;8.294;2023-06-14T09:31:12;3.67;;;3.37;;
562;SDS011;266;49.514;8.294;2023-06-14T09:33:41;3.50;;;3.20;;
562;SDS011;266;49.514;8.294;2023-06-14T09:36:15;3.70;;;3.40;;
562;SDS011;266;49.514;8.294;2023-06-14T09:38:51;2.80;;;2.60;;
562;SDS011;266;49.514;8.294;2023-06-14T09:41:22;3.63;;;3.30;;
562;SDS011;266;49.514;8.294;2023-06-14T09:43:59;3.20;;;2.90;;
562;SDS011;266;49.514;8.294;2023-06-14T09:46:33;2.50;;;2.30;;
562;SDS011;266;49.514;8.294;2023-06-14T09:49:03;3.93;;;2.90;;
562;SDS011;266;49.514;8.294;2023-06-14T09:51:32;4.60;;;3.93;;
562;SDS011;266;49.514;8.294;2023-06-14T09:54:02;3.27;;;3.07;;
562;SDS011;266;49.514;8.294;2023-06-14T09:56:34;3.00;;;2.80;;
562;SDS011;266;49.514;8.294;2023-06-14T09:59:04;3.20;;;3.00;;
562;SDS011;266;49.514;8.294;2023-06-14T10:01:34;3.23;;;2.80;;
562;SDS011;266;49.514;8.294;2023-06-14T10:04:09;3.50;;;2.80;;
562;SDS011;266;49.514;8.294;2023-06-14T10:06:39;3.37;;;3.07;;
562;SDS011;266;49.514;8.294;2023-06-14T10:09:08;3.67;;;3.33;;
562;SDS011;266;49.514;8.294;2023-06-14T10:11:38;3.37;;;2.80;;
562;SDS011;266;49.514;8.294;2023-06-14T10:14:11;4.50;;;2.47;;
562;SDS011;266;49.514;8.294;2023-06-14T10:16:42;2.40;;;2.20;;
562;SDS011;266;49.514;8.294;2023-06-14T10:19:17;2.80;;;2.60;;
562;SDS011;266;49.514;8.294;2023-06-14T10:21:49;3.40;;;3.10;;
562;SDS011;266;49.514;8.294;2023-06-14T10:24:28;3.00;;;2.60;;
562;SDS011;266;49.514;8.294;2023-06-14T10:27:01;3.07;;;2.87;;
562;SDS011;266;49.514;8.294;2023-06-14T10:29:29;4.40;;;3.27;;
562;SDS011;266;49.514;8.294;2023-06-14T10:31:59;3.60;;;3.30;;
562;SDS011;266;49.514;8.294;2023-06-14T10:34:30;3.10;;;2.80;;
562;SDS011;266;49.514;8.294;2023-06-14T10:37:02;3.60;;;3.30;;
562;SDS011;266;49.514;8.294;2023-06-14T10:39:32;3.53;;;3.23;;
562;SDS011;266;49.514;8.294;2023-06-14T10:42:07;9.90;;;3.67;;
562;SDS011;266;49.514;8.294;2023-06-14T10:44:40;3.40;;;3.10;;
562;SDS011;266;49.514;8.294;2023-06-14T10:47:10;2.90;;;2.70;;
562;SDS011;266;49.514;8.294;2023-06-14T10:49:49;2.57;;;2.40;;
562;SDS011;266;49.514;8.294;2023-06-14T10:52:20;2.87;;;2.67;;
562;SDS011;266;49.514;8.294;2023-06-14T10:55:03;2.83;;;2.63;;
562;SDS011;266;49.514;8.294;2023-06-14T10:57:41;4.93;;;2.67;;
562;SDS011;266;49.514;8.294;2023-06-14T11:00:18;3.27;;;3.07;;
562;SDS011;266;49.514;8.294;2023-06-14T11:02:58;4.60;;;2.47;;
562;SDS011;266;49.514;8.294;2023-06-14T11:05:49;3.80;;;3.43;;
562;SDS011;266;49.514;8.294;2023-06-14T11:11:19;2.90;;;2.70;;
562;SDS011;266;49.514;8.294;2023-06-14T11:13:51;2.80;;;2.60;;
562;SDS011;266;49.514;8.294;2023-06-14T11:16:19;2.70;;;2.50;;
562;SDS011;266;49.514;8.294;2023-06-14T11:18:48;3.20;;;2.90;;
562;SDS011;266;49.514;8.294;2023-06-14T11:21:17;2.90;;;2.53;;
562;SDS011;266;49.514;8.294;2023-06-14T11:23:49;2.07;;;1.97;;
562;SDS011;266;49.514;8.294;2023-06-14T11:26:24;7.13;;;3.23;;
562;SDS011;266;49.514;8.294;2023-06-14T11:28:58;4.70;;;3.10;;
562;SDS011;266;49.514;8.294;2023-06-14T11:31:27;3.00;;;2.80;;
562;SDS011;266;49.514;8.294;2023-06-14T11:33:56;4.30;;;3.07;;
562;SDS011;266;49.514;8.294;2023-06-14T11:36:26;5.87;;;3.50;;
562;SDS011;266;49.514;8.294;2023-06-14T11:38:59;3.10;;;2.43;;
562;SDS011;266;49.514;8.294;2023-06-14T11:41:32;3.30;;;3.00;;
562;SDS011;266;49.514;8.294;2023-06-14T11:44:05;3.40;;;3.10;;
562;SDS011;266;49.514;8.294;2023-06-14T11:46:34;3.80;;;2.83;;
562;SDS011;266;49.514;8.294;2023-06-14T11:49:03;2.73;;;2.53;;
562;SDS011;266;49.514;8.294;2023-06-14T11:51:33;4.13;;;2.80;;
562;SDS011;266;49.514;8.294;2023-06-14T11:54:02;2.80;;;2.50;;
562;SDS011;266;49.514;8.294;2023-06-14T11:56:30;3.47;;;3.27;;
562;SDS011;266;49.514;8.294;2023-06-14T11:58:59;6.33;;;2.90;;
562;SDS011;266;49.514;8.294;2023-06-14T12:01:29;3.20;;;3.00;;
562;SDS011;266;49.514;8.294;2023-06-14T12:03:58;3.03;;;2.77;;
562;SDS011;266;49.514;8.294;2023-06-14T12:06:27;3.37;;;3.17;;
562;SDS011;266;49.514;8.294;2023-06-14T12:08:59;2.90;;;2.70;;
562;SDS011;266;49.514;8.294;2023-06-14T12:11:31;3.17;;;2.97;;
562;SDS011;266;49.514;8.294;2023-06-14T12:14:00;3.30;;;3.00;;
562;SDS011;266;49.514;8.294;2023-06-14T12:16:32;2.70;;;2.50;;
562;SDS011;266;49.514;8.294;2023-06-14T12:19:12;2.87;;;2.67;;
562;SDS011;266;49.514;8.294;2023-06-14T12:21:42;3.40;;;3.10;;
562;SDS011;266;49.514;8.294;2023-06-14T12:24:12;3.73;;;3.43;;
562;SDS011;266;49.514;8.294;2023-06-14T12:26:41;3.40;;;3.20;;
562;SDS011;266;49.514;8.294;2023-06-14T12:29:09;3.70;;;3.40;;
562;SDS011;266;49.514;8.294;2023-06-14T12:31:40;3.33;;;3.03;;
562;SDS011;266;49.514;8.294;2023-06-14T12:34:09;3.60;;;3.30;;
562;SDS011;266;49.514;8.294;2023-06-14T12:36:37;3.60;;;3.30;;
562;SDS011;266;49.514;8.294;2023-06-14T12:39:10;3.60;;;3.30;;
562;SDS011;266;49.514;8.294;2023-06-14T12:41:38;3.87;;;3.57;;
562;SDS011;266;49.514;8.294;2023-06-14T12:44:07;3.50;;;3.30;;
562;SDS011;266;49.514;8.294;2023-06-14T12:46:36;3.67;;;3.40;;
562;SDS011;266;49.514;8.294;2023-06-14T12:49:07;3.33;;;3.03;;
562;SDS011;266;49.514;8.294;2023-06-14T12:51:37;3.40;;;3.10;;
562;SDS011;266;49.514;8.294;2023-06-14T12:54:05;3.67;;;3.37;;
562;SDS011;266;49.514;8.294;2023-06-14T12:56:33;3.93;;;3.63;;
562;SDS011;266;49.514;8.294;2023-06-14T12:59:01;3.40;;;3.10;;
562;SDS011;266;49.514;8.294;2023-06-14T13:01:29;3.57;;;3.27;;
562;SDS011;266;49.514;8.294;2023-06-14T13:03:57;3.97;;;3.60;;
562;SDS011;266;49.514;8.294;2023-06-14T13:06:27;4.30;;;3.90;;
562;SDS011;266;49.514;8.294;2023-06-14T13:08:56;4.60;;;3.70;;
562;SDS011;266;49.514;8.294;2023-06-14T13:11:25;3.20;;;3.00;;
562;SDS011;266;49.514;8.294;2023-06-14T13:13:53;3.53;;;3.23;;
562;SDS011;266;49.514;8.294;2023-06-14T13:16:21;4.37;;;3.57;;
562;SDS011;266;49.514;8.294;2023-06-14T13:18:49;4.37;;;4.07;;
562;SDS011;266;49.514;8.294;2023-06-14T13:21:17;3.50;;;3.30;;
562;SDS011;266;49.514;8.294;2023-06-14T13:23:46;3.30;;;2.87;;
562;SDS011;266;49.514;8.294;2023-06-14T13:26:14;3.17;;;2.97;;
562;SDS011;266;49.514;8.294;2023-06-14T13:28:44;3.00;;;2.80;;
562;SDS011;266;49.514;8.294;2023-06-14T13:31:12;4.00;;;3.70;;
562;SDS011;266;49.514;8.294;2023-06-14T13:33:41;3.80;;;3.50;;
562;SDS011;266;49.514;8.294;2023-06-14T13:36:09;3.23;;;2.90;;
562;SDS011;266;49.514;8.294;2023-06-14T13:38:37;3.27;;;2.97;;
562;SDS011;266;49.514;8.294;2023-06-14T13:41:06;4.73;;;4.40;;
562;SDS011;266;49.514;8.294;2023-06-14T13:43:34;3.20;;;3.00;;
562;SDS011;266;49.514;8.294;2023-06-14T13:46:02;3.20;;;3.00;;
562;SDS011;266;49.514;8.294;2023-06-14T13:48:48;3.90;;;3.60;;
562;SDS011;266;49.514;8.294;2023-06-14T13:51:17;3.13;;;2.93;;
562;SDS011;266;49.514;8.294;2023-06-14T13:53:45;3.63;;;3.40;;
562;SDS011;266;49.514;8.294;2023-06-14T13:56:33;3.53;;;3.23;;
562;SDS011;266;49.514;8.294;2023-06-14T13:59:01;3.87;;;3.50;;
562;SDS011;266;49.514;8.294;2023-06-14T14:01:29;3.20;;;2.90;;
562;SDS011;266;49.514;8.294;2023-06-14T14:03:57;3.07;;;2.87;;
562;SDS011;266;49.514;8.294;2023-06-14T14:06:44;5.90;;;3.33;;
562;SDS011;266;49.514;8.294;2023-06-14T14:09:30;3.77;;;3.17;;
562;SDS011;266;49.514;8.294;2023-06-14T14:11:59;4.10;;;3.47;;
562;SDS011;266;49.514;8.294;2023-06-14T14:14:45;3.60;;;3.30;;
562;SDS011;266;49.514;8.294;2023-06-14T14:17:13;2.93;;;2.73;;
562;SDS011;266;49.514;8.294;2023-06-14T14:19:41;5.43;;;3.10;;
562;SDS011;266;49.514;8.294;2023-06-14T14:22:26;2.87;;;2.67;;
562;SDS011;266;49.514;8.294;2023-06-14T14:24:54;3.57;;;3.37;;
562;SDS011;266;49.514;8.294;2023-06-14T14:27:41;3.30;;;3.10;;
562;SDS011;266;49.514;8.294;2023-06-14T14:30:27;3.23;;;3.03;;
562;SDS011;266;49.514;8.294;2023-06-14T14:32:55;3.83;;;3.53;;
562;SDS011;266;49.514;8.294;2023-06-14T14:35:23;3.57;;;3.27;;
562;SDS011;266;49.514;8.294;2023-06-14T14:37:57;3.10;;;2.90;;
562;SDS011;266;49.514;8.294;2023-06-14T14:40:25;3.63;;;3.33;;
562;SDS011;266;49.514;8.294;2023-06-14T14:42:54;3.37;;;3.07;;
562;SDS011;266;49.514;8.294;2023-06-14T14:45:23;3.07;;;2.87;;
562;SDS011;266;49.514;8.294;2023-06-14T14:47:51;3.40;;;3.10;;
562;SDS011;266;49.514;8.294;2023-06-14T14:50:21;3.10;;;2.90;;
562;SDS011;266;49.514;8.294;2023-06-14T14:52:49;4.03;;;2.70;;
562;SDS011;266;49.514;8.294;2023-06-14T14:55:17;3.67;;;3.37;;
562;SDS011;266;49.514;8.294;2023-06-14T14:57:45;5.10;;;3.50;;
562;SDS011;266;49.514;8.294;2023-06-14T15:00:15;3.37;;;3.17;;
562;SDS011;266;49.514;8.294;2023-06-14T15:02:44;3.17;;;2.97;;
562;SDS011;266;49.514;8.294;2023-06-14T15:05:13;3.47;;;3.27;;
562;SDS011;266;49.514;8.294;2023-06-14T15:07:41;3.60;;;3.40;;
562;SDS011;266;49.514;8.294;2023-06-14T15:10:09;3.10;;;2.90;;
562;SDS011;266;49.514;8.294;2023-06-14T15:12:37;3.67;;;3.37;;
562;SDS011;266;49.514;8.294;2023-06-14T15:15:06;5.10;;;2.83;;
562;SDS011;266;49.514;8.294;2023-06-14T15:17:37;3.10;;;2.90;;
562;SDS011;266;49.514;8.294;2023-06-14T15:20:05;4.53;;;4.23;;
562;SDS011;266;49.514;8.294;2023-06-14T15:22:34;4.73;;;3.87;;
562;SDS011;266;49.514;8.294;2023-06-14T15:25:02;3.47;;;3.17;;
562;SDS011;266;49.514;8.294;2023-06-14T15:27:31;3.57;;;3.37;;
562;SDS011;266;49.514;8.294;2023-06-14T15:29:59;4.50;;;4.20;;
562;SDS011;266;49.514;8.294;2023-06-14T15:32:27;13.67;;;3.43;;
562;SDS011;266;49.514;8.294;2023-06-14T15:34:56;3.07;;;2.87;;
562;SDS011;266;49.514;8.294;2023-06-14T15:37:24;4.87;;;3.77;;
562;SDS011;266;49.514;8.294;2023-06-14T15:39:52;2.93;;;2.73;;
562;SDS011;266;49.514;8.294;2023-06-14T15:42:20;3.10;;;2.90;;
562;SDS011;266;49.514;8.294;2023-06-14T15:44:48;3.70;;;3.40;;
562;SDS011;266;49.514;8.294;2023-06-14T15:47:16;4.20;;;3.60;;
562;SDS011;266;49.514;8.294;2023-06-14T15:49:44;3.77;;;3.47;;
562;SDS011;266;49.514;8.294;2023-06-14T15:52:13;3.33;;;3.13;;
562;SDS011;266;49.514;8.294;2023-06-14T15:54:41;3.43;;;3.13;;
562;SDS011;266;49.514;8.294;2023-06-14T15:57:09;3.50;;;3.30;;
562;SDS011;266;49.514;8.294;2023-06-14T15:59:38;3.20;;;2.87;;
562;SDS011;266;49.514;8.294;2023-06-14T16:02:05;3.93;;;3.63;;
562;SDS011;266;49.514;8.294;2023-06-14T16:04:33;3.13;;;2.93;;